createdAt,value
2023-04-21T00:00:30.560Z,97722.63
2023-04-21T00:03:00.171Z,97715.00
2023-04-21T00:05:28.473Z,97718.50
2023-04-21T00:07:56.676Z,97726.22
2023-04-21T00:10:24.705Z,97722.88
2023-04-21T00:12:52.721Z,97716.75
2023-04-21T00:15:20.849Z,97710.97
2023-04-21T00:17:49.123Z,97705.19
2023-04-21T00:20:18.804Z,97713.88
2023-04-21T00:22:47.216Z,97702.88
2023-04-21T00:25:16.136Z,97706.44
2023-04-21T00:27:44.286Z,97698.03
2023-04-21T00:30:13.253Z,97688.91
2023-04-21T00:32:41.679Z,97693.25
2023-04-21T00:35:10.770Z,97695.00
2023-04-21T00:37:40.969Z,97682.41
2023-04-21T00:40:10.712Z,97683.41
2023-04-21T00:42:39.089Z,97680.91
2023-04-21T00:45:08.267Z,97684.47
2023-04-21T00:47:36.594Z,97680.31
2023-04-21T00:50:05.567Z,97678.84
2023-04-21T00:52:35.163Z,97677.91
2023-04-21T00:55:05.698Z,97683.91
2023-04-21T00:57:33.971Z,97682.22
2023-04-21T01:00:02.166Z,97685.66
2023-04-21T01:02:30.419Z,97682.31
2023-04-21T01:04:58.676Z,97678.94
2023-04-21T01:07:27.064Z,97675.50
2023-04-21T01:09:55.454Z,97684.72
2023-04-21T01:12:25.106Z,97681.34
2023-04-21T01:14:53.419Z,97687.38
2023-04-21T01:17:22.903Z,97695.06
2023-04-21T01:19:53.276Z,97691.63
2023-04-21T01:22:22.812Z,97693.34
2023-04-21T01:24:51.960Z,97697.56
2023-04-21T01:27:22.238Z,97706.13
2023-04-21T01:29:52.233Z,97700.94
2023-04-21T01:32:22.333Z,97702.63
2023-04-21T01:34:51.600Z,97703.44
2023-04-21T01:37:23.411Z,97705.97
2023-04-21T01:39:55.355Z,97712.91
2023-04-21T01:42:26.428Z,97721.56
2023-04-21T01:44:54.915Z,97716.56
2023-04-21T01:47:23.128Z,97710.63
2023-04-21T01:49:51.221Z,97714.94
2023-04-21T01:52:19.507Z,97717.53
2023-04-21T01:54:49.208Z,97714.19
2023-04-21T01:57:17.691Z,97707.38
2023-04-21T01:59:46.044Z,97714.25
2023-04-21T02:02:14.534Z,97711.88
2023-04-21T02:04:42.863Z,97706.84
2023-04-21T02:07:10.994Z,97707.66
2023-04-21T02:09:39.286Z,97706.91
2023-04-21T02:12:09.205Z,97709.53
2023-04-21T02:14:38.624Z,97693.47
2023-04-21T02:17:07.163Z,97708.78
2023-04-21T02:19:35.501Z,97717.28
2023-04-21T02:22:04.183Z,97707.19
2023-04-21T02:24:32.319Z,97711.56
2023-04-21T02:27:00.710Z,97711.63
2023-04-21T02:29:32.859Z,97711.69
2023-04-21T02:32:10.721Z,97709.16
2023-04-21T02:34:49.482Z,97708.38
2023-04-21T02:37:17.785Z,97714.34
2023-04-21T02:39:46.204Z,97705.06
2023-04-21T02:42:14.424Z,97702.59
2023-04-21T02:44:44.280Z,97703.50
2023-04-21T02:47:12.849Z,97697.50
2023-04-21T02:49:44.224Z,97684.88
2023-04-21T02:52:12.568Z,97702.63
2023-04-21T02:54:40.852Z,97697.50
2023-04-21T02:57:10.025Z,97698.38
2023-04-21T02:59:38.186Z,97700.13
2023-04-21T03:02:08.395Z,97703.50
2023-04-21T03:04:36.733Z,97698.47
2023-04-21T03:07:05.217Z,97703.69
2023-04-21T03:09:33.816Z,97696.06
2023-04-21T03:12:03.353Z,97708.78
2023-04-21T03:14:31.742Z,97702.88
2023-04-21T03:17:00.196Z,97705.38
2023-04-21T03:19:29.917Z,97705.41
2023-04-21T03:21:58.531Z,97708.81
2023-04-21T03:24:30.206Z,97708.84
2023-04-21T03:26:58.769Z,97711.47
2023-04-21T03:29:28.556Z,97711.47
2023-04-21T03:31:56.909Z,97702.25
2023-04-21T03:34:25.406Z,97708.09
2023-04-21T03:36:56.061Z,97711.47
2023-04-21T03:39:24.516Z,97712.31
2023-04-21T03:41:52.829Z,97706.41
2023-04-21T03:44:21.351Z,97713.22
2023-04-21T03:46:49.897Z,97698.03
2023-04-21T03:49:18.540Z,97721.78
2023-04-21T03:51:46.996Z,97721.84
2023-04-21T03:54:16.621Z,97722.75
2023-04-21T03:56:44.887Z,97716.03
2023-04-21T03:59:13.096Z,97710.97
2023-04-21T04:01:42.507Z,97711.91
2023-04-21T04:04:11.124Z,97709.41
2023-04-21T04:06:39.571Z,97708.59
2023-04-21T04:09:09.374Z,97715.44
2023-04-21T04:11:39.529Z,97709.53
2023-04-21T04:14:07.979Z,97715.47
2023-04-21T04:16:38.130Z,97713.00
2023-04-21T04:19:06.327Z,97721.53
2023-04-21T04:21:34.861Z,97709.69
2023-04-21T04:24:05.433Z,97713.91
2023-04-21T04:26:35.752Z,97716.44
2023-04-21T04:29:06.553Z,97719.88
2023-04-21T04:31:35.413Z,97717.28
2023-04-21T04:34:03.759Z,97717.25
2023-04-21T04:36:32.520Z,97712.22
2023-04-21T04:39:00.884Z,97717.19
2023-04-21T04:41:33.509Z,97719.69
2023-04-21T04:44:01.789Z,97712.84
2023-04-21T04:46:31.588Z,97718.75
2023-04-21T04:49:00.607Z,97720.50
2023-04-21T04:51:29.399Z,97722.22
2023-04-21T04:53:57.815Z,97721.38
2023-04-21T04:56:26.445Z,97717.16
2023-04-21T04:58:54.652Z,97720.50
2023-04-21T05:01:26.109Z,97721.38
2023-04-21T05:03:56.147Z,97712.88
2023-04-21T05:06:24.717Z,97716.31
2023-04-21T05:08:53.068Z,97726.53
2023-04-21T05:11:21.171Z,97724.03
2023-04-21T05:13:49.848Z,97725.72
2023-04-21T05:16:18.094Z,97734.19
2023-04-21T05:18:46.278Z,97732.44
2023-04-21T05:21:15.905Z,97730.75
2023-04-21T05:23:44.532Z,97725.63
2023-04-21T05:26:13.147Z,97722.09
2023-04-21T05:28:41.257Z,97734.72
2023-04-21T05:31:09.478Z,97729.38
2023-04-21T05:33:38.132Z,97726.56
2023-04-21T05:36:09.553Z,97730.66
2023-04-21T05:38:39.938Z,97728.00
2023-04-21T05:41:08.824Z,97729.59
2023-04-21T05:43:37.180Z,97722.66
2023-04-21T05:46:11.202Z,97717.34
2023-04-21T05:48:40.431Z,97724.00
2023-04-21T05:51:12.902Z,97712.97
2023-04-21T05:53:43.803Z,97729.72
2023-04-21T05:56:12.177Z,97720.81
2023-04-21T05:58:40.695Z,97720.47
2023-04-21T06:01:09.845Z,97714.22
2023-04-21T06:03:38.508Z,97718.91
2023-04-21T06:06:08.199Z,97708.63
2023-04-21T06:08:36.579Z,97706.00
2023-04-21T06:11:07.059Z,97729.69
2023-04-21T06:13:37.000Z,97726.97
2023-04-21T06:16:07.404Z,97728.28
2023-04-21T06:18:35.978Z,97734.25
2023-04-21T06:21:04.361Z,97729.56
2023-04-21T06:23:32.533Z,97720.56
2023-04-21T06:26:05.162Z,97720.34
2023-04-21T06:28:36.131Z,97715.81
2023-04-21T06:31:08.754Z,97709.97
2023-04-21T06:33:37.737Z,97711.78
2023-04-21T06:36:07.325Z,97702.56
2023-04-21T06:38:36.097Z,97697.84
2023-04-21T06:41:05.959Z,97693.19
2023-04-21T06:43:35.996Z,97691.91
2023-04-21T06:46:04.382Z,97679.88
2023-04-21T06:48:32.745Z,97675.88
2023-04-21T06:51:02.884Z,97679.09
2023-04-21T06:53:31.355Z,97691.31
2023-04-21T06:56:01.136Z,97673.88
2023-04-21T06:58:29.447Z,97690.41
2023-04-21T07:00:59.394Z,97687.53
2023-04-21T07:03:27.755Z,97686.06
2023-04-21T07:05:56.412Z,97681.28
2023-04-21T07:08:26.827Z,97682.59
2023-04-21T07:10:55.607Z,97692.06
2023-04-21T07:13:24.507Z,97691.66
2023-04-21T07:15:53.314Z,97684.25
2023-04-21T07:18:22.996Z,97692.25
2023-04-21T07:20:51.513Z,97691.59
2023-04-21T07:23:20.402Z,97691.81
2023-04-21T07:25:52.456Z,97695.50
2023-04-21T07:28:20.943Z,97693.97
2023-04-21T07:30:49.725Z,97682.72
2023-04-21T07:33:18.458Z,97679.59
2023-04-21T07:35:48.365Z,97682.44
2023-04-21T07:38:16.330Z,97674.28
2023-04-21T07:40:44.642Z,97676.13
2023-04-21T07:43:13.639Z,97672.53
2023-04-21T07:45:42.074Z,97673.75
2023-04-21T07:48:10.507Z,97681.50
2023-04-21T07:50:38.922Z,97676.50
2023-04-21T07:53:08.551Z,97667.34
2023-04-21T07:55:37.383Z,97664.81
2023-04-21T07:58:06.819Z,97663.53
2023-04-21T08:00:35.325Z,97671.91
2023-04-21T08:03:03.694Z,97664.19
2023-04-21T08:05:35.763Z,97656.84
2023-04-21T08:08:06.534Z,97663.28
2023-04-21T08:10:37.202Z,97656.75
2023-04-21T08:13:06.684Z,97664.31
2023-04-21T08:15:36.002Z,97659.94
2023-04-21T08:18:04.379Z,97654.75
2023-04-21T08:20:32.864Z,97656.44
2023-04-21T08:23:01.592Z,97656.78
2023-04-21T08:25:30.125Z,97649.03
2023-04-21T08:27:59.937Z,97654.25
2023-04-21T08:30:29.218Z,97659.16
2023-04-21T08:32:57.617Z,97652.19
2023-04-21T08:35:26.698Z,97659.44
2023-04-21T08:37:55.706Z,97656.81
2023-04-21T08:40:31.155Z,97658.06
2023-04-21T08:43:01.093Z,97657.97
2023-04-21T08:45:30.093Z,97664.94
2023-04-21T08:48:00.577Z,97659.91
2023-04-21T08:50:30.446Z,97657.97
2023-04-21T08:52:59.508Z,97648.81
2023-04-21T08:55:30.610Z,97656.88
2023-04-21T08:58:00.734Z,97657.50
2023-04-21T09:00:29.062Z,97656.38
2023-04-21T09:03:01.163Z,97645.31
2023-04-21T09:05:32.500Z,97642.44
2023-04-21T09:08:10.821Z,97637.19
2023-04-21T09:10:47.124Z,97643.63
2023-04-21T09:13:18.518Z,97651.50
2023-04-21T09:15:49.125Z,97650.91
2023-04-21T09:18:19.083Z,97648.03
2023-04-21T09:20:50.192Z,97641.59
2023-04-21T09:23:18.835Z,97645.19
2023-04-21T09:25:47.706Z,97643.56
2023-04-21T09:28:17.455Z,97646.78
2023-04-21T09:30:46.601Z,97641.19
2023-04-21T09:33:28.066Z,97643.53
2023-04-21T09:36:03.419Z,97636.97
2023-04-21T09:38:32.860Z,97629.91
2023-04-21T09:41:01.126Z,97631.28
2023-04-21T09:43:30.773Z,97634.59
2023-04-21T09:46:01.726Z,97643.38
2023-04-21T09:48:34.918Z,97636.50
2023-04-21T09:51:25.509Z,97636.19
2023-04-21T09:53:58.151Z,97637.78
2023-04-21T09:56:27.756Z,97639.13
2023-04-21T09:59:03.008Z,97636.41
2023-04-21T10:01:32.360Z,97636.00
2023-04-21T10:04:01.722Z,97635.63
2023-04-21T10:06:30.318Z,97629.09
2023-04-21T10:08:59.949Z,97624.59
2023-04-21T10:11:28.596Z,97616.22
2023-04-21T10:13:58.696Z,97609.19
2023-04-21T10:16:27.056Z,97600.81
2023-04-21T10:18:56.014Z,97604.38
2023-04-21T10:21:24.670Z,97614.88
2023-04-21T10:23:54.582Z,97601.16
2023-04-21T10:26:25.400Z,97598.59
2023-04-21T10:28:56.360Z,97596.88
2023-04-21T10:31:31.598Z,97602.06
2023-04-21T10:34:23.705Z,97599.56
2023-04-21T10:37:15.831Z,97601.00
2023-04-21T10:39:48.391Z,97588.38
2023-04-21T10:42:31.378Z,97599.63
2023-04-21T10:45:11.357Z,97594.03
2023-04-21T10:47:51.731Z,97591.56
2023-04-21T10:50:26.607Z,97587.41
2023-04-21T10:52:58.190Z,97576.13
2023-04-21T10:55:31.576Z,97584.97
2023-04-21T10:58:04.474Z,97577.16
2023-04-21T11:00:33.784Z,97579.97
2023-04-21T11:03:06.286Z,97574.66
2023-04-21T11:05:40.570Z,97565.84
2023-04-21T11:08:14.667Z,97566.56
2023-04-21T11:10:44.746Z,97555.50
2023-04-21T11:13:13.227Z,97559.81
2023-04-21T11:15:43.026Z,97556.47
2023-04-21T11:18:13.015Z,97560.25
2023-04-21T11:20:46.347Z,97552.13
2023-04-21T11:23:19.344Z,97550.31
2023-04-21T11:25:50.717Z,97536.09
2023-04-21T11:28:23.235Z,97535.28
2023-04-21T11:30:51.987Z,97529.31
2023-04-21T11:33:21.892Z,97530.56
2023-04-21T11:35:51.801Z,97529.44
2023-04-21T11:38:20.181Z,97533.63
2023-04-21T11:40:49.590Z,97527.22
2023-04-21T11:43:18.342Z,97514.63
2023-04-21T11:45:50.863Z,97528.25
2023-04-21T11:48:21.077Z,97517.84
2023-04-21T11:50:52.102Z,97520.47
2023-04-21T11:53:21.188Z,97524.88
2023-04-21T11:55:49.779Z,97517.81
2023-04-21T11:58:18.293Z,97520.72
2023-04-21T12:00:47.425Z,97527.66
2023-04-21T12:03:16.596Z,97523.19
2023-04-21T12:05:46.239Z,97515.06
2023-04-21T12:08:19.583Z,97512.38
2023-04-21T12:10:50.626Z,97516.38
2023-04-21T12:13:24.145Z,97509.97
2023-04-21T12:15:52.931Z,97514.66
2023-04-21T12:18:21.544Z,97510.09
2023-04-21T12:20:54.487Z,97506.53
2023-04-21T12:23:24.425Z,97502.38
2023-04-21T12:25:53.132Z,97497.00
2023-04-21T12:28:21.801Z,97498.25
2023-04-21T12:30:50.682Z,97498.22
2023-04-21T12:33:19.129Z,97503.88
2023-04-21T12:35:48.179Z,97492.19
2023-04-21T12:38:16.692Z,97491.38
2023-04-21T12:40:46.558Z,97487.00
2023-04-21T12:43:15.072Z,97482.41
2023-04-21T12:45:43.424Z,97476.75
2023-04-21T12:48:12.585Z,97474.72
2023-04-21T12:50:41.310Z,97481.75
2023-04-21T12:53:09.714Z,97474.78
2023-04-21T12:55:39.137Z,97479.84
2023-04-21T12:58:09.648Z,97476.56
2023-04-21T13:00:38.448Z,97471.34
2023-04-21T13:03:07.816Z,97468.38
2023-04-21T13:05:36.479Z,97472.94
2023-04-21T13:08:05.366Z,97472.84
2023-04-21T13:10:33.910Z,97468.50
2023-04-21T13:13:02.542Z,97472.81
2023-04-21T13:15:32.737Z,97465.47
2023-04-21T13:18:01.242Z,97465.50
2023-04-21T13:20:29.632Z,97466.56
2023-04-21T13:22:57.810Z,97468.72
2023-04-21T13:25:26.166Z,97469.69
2023-04-21T13:27:54.987Z,97465.47
2023-04-21T13:30:23.521Z,97465.13
2023-04-21T13:32:53.447Z,97462.69
2023-04-21T13:35:22.292Z,97460.59
2023-04-21T13:37:50.869Z,97459.47
2023-04-21T13:40:19.444Z,97465.13
2023-04-21T13:42:48.568Z,97456.09
2023-04-21T13:45:17.147Z,97463.53
2023-04-21T13:47:45.711Z,97460.41
2023-04-21T13:50:16.610Z,97448.13
2023-04-21T13:52:44.936Z,97450.19
2023-04-21T13:55:13.512Z,97462.47
2023-04-21T13:57:41.990Z,97452.97
2023-04-21T14:00:12.480Z,97437.22
2023-04-21T14:02:42.019Z,97436.47
2023-04-21T14:05:11.095Z,97434.22
2023-04-21T14:07:41.526Z,97431.81
2023-04-21T14:10:11.502Z,97428.34
2023-04-21T14:12:40.013Z,97434.75
2023-04-21T14:15:09.540Z,97427.50
2023-04-21T14:17:38.116Z,97421.88
2023-04-21T14:20:09.529Z,97429.13
2023-04-21T14:22:38.110Z,97409.31
2023-04-21T14:25:08.896Z,97421.22
2023-04-21T14:27:37.721Z,97418.84
2023-04-21T14:30:07.324Z,97411.69
2023-04-21T14:32:35.755Z,97413.00
2023-04-21T14:35:05.762Z,97407.44
2023-04-21T14:37:34.365Z,97393.41
2023-04-21T14:40:04.542Z,97388.19
2023-04-21T14:42:34.516Z,97395.41
2023-04-21T14:45:02.952Z,97386.00
2023-04-21T14:47:31.705Z,97391.56
2023-04-21T14:50:00.525Z,97386.72
2023-04-21T14:52:29.334Z,97387.25
2023-04-21T14:54:58.208Z,97385.19
2023-04-21T14:57:27.405Z,97385.03
2023-04-21T14:59:57.432Z,97385.50
2023-04-21T15:02:26.772Z,97392.16
2023-04-21T15:04:55.156Z,97395.66
2023-04-21T15:07:24.644Z,97387.81
2023-04-21T15:09:53.782Z,97388.88
2023-04-21T15:12:22.546Z,97386.31
2023-04-21T15:14:51.811Z,97389.75
2023-04-21T15:17:21.607Z,97379.31
2023-04-21T15:19:50.119Z,97370.31
2023-04-21T15:22:21.154Z,97373.38
2023-04-21T15:24:50.307Z,97384.53
2023-04-21T15:27:19.957Z,97377.66
2023-04-21T15:29:48.455Z,97376.34
2023-04-21T15:32:18.735Z,97379.31
2023-04-21T15:34:49.304Z,97365.31
2023-04-21T15:37:19.309Z,97363.34
2023-04-21T15:39:47.733Z,97359.75
2023-04-21T15:42:16.192Z,97352.06
2023-04-21T15:44:44.803Z,97351.19
2023-04-21T15:47:13.250Z,97350.09
2023-04-21T15:49:41.465Z,97359.84
2023-04-21T15:52:11.422Z,97354.72
2023-04-21T15:54:40.163Z,97356.63
2023-04-21T15:57:10.917Z,97355.44
2023-04-21T15:59:40.820Z,97350.38
2023-04-21T16:02:09.730Z,97352.78
2023-04-21T16:04:38.668Z,97347.47
2023-04-21T16:07:07.804Z,97345.88
2023-04-21T16:09:38.013Z,97335.25
2023-04-21T16:12:10.523Z,97327.75
2023-04-21T16:14:50.772Z,97331.19
2023-04-21T16:17:26.671Z,97334.22
2023-04-21T16:19:56.911Z,97333.06
2023-04-21T16:22:26.247Z,97334.34
2023-04-21T16:24:56.744Z,97341.97
2023-04-21T16:27:25.922Z,97329.13
2023-04-21T16:29:54.437Z,97330.09
2023-04-21T16:32:22.840Z,97330.34
2023-04-21T16:34:51.054Z,97327.31
2023-04-21T16:37:20.078Z,97320.34
2023-04-21T16:39:48.863Z,97325.69
2023-04-21T16:42:18.720Z,97315.28
2023-04-21T16:44:51.265Z,97317.78
2023-04-21T16:47:20.352Z,97325.38
2023-04-21T16:49:49.765Z,97320.41
2023-04-21T16:52:18.462Z,97328.84
2023-04-21T16:54:46.672Z,97318.88
2023-04-21T16:57:15.044Z,97337.53
2023-04-21T16:59:44.700Z,97332.72
2023-04-21T17:02:13.432Z,97330.53
2023-04-21T17:04:41.808Z,97332.59
2023-04-21T17:07:11.302Z,97341.97
2023-04-21T17:09:39.909Z,97347.03
2023-04-21T17:12:08.194Z,97339.09
2023-04-21T17:14:37.481Z,97336.81
2023-04-21T17:17:07.475Z,97335.28
2023-04-21T17:19:36.668Z,97330.88
2023-04-21T17:22:05.336Z,97345.88
2023-04-21T17:24:44.983Z,97334.03
2023-04-21T17:27:21.160Z,97338.59
2023-04-21T17:29:50.190Z,97340.59
2023-04-21T17:32:21.996Z,97342.06
2023-04-21T17:34:50.520Z,97340.97
2023-04-21T17:37:18.877Z,97343.47
2023-04-21T17:39:47.198Z,97344.50
2023-04-21T17:42:15.455Z,97345.47
2023-04-21T17:44:43.824Z,97350.66
2023-04-21T17:47:13.126Z,97347.00
2023-04-21T17:49:43.057Z,97350.63
2023-04-21T17:52:12.196Z,97348.31
2023-04-21T17:54:41.583Z,97355.03
2023-04-21T17:57:09.905Z,97357.25
2023-04-21T17:59:38.328Z,97360.09
2023-04-21T18:02:08.272Z,97369.84
2023-04-21T18:04:37.030Z,97365.56
2023-04-21T18:07:08.060Z,97373.56
2023-04-21T18:09:37.695Z,97373.47
2023-04-21T18:12:06.220Z,97378.38
2023-04-21T18:14:36.267Z,97381.19
2023-04-21T18:17:04.890Z,97377.13
2023-04-21T18:19:33.271Z,97381.84
2023-04-21T18:22:01.836Z,97377.47
2023-04-21T18:24:32.435Z,97379.00
2023-04-21T18:27:00.948Z,97380.84
2023-04-21T18:29:29.275Z,97381.38
2023-04-21T18:31:57.601Z,97386.03
2023-04-21T18:34:26.536Z,97391.84
2023-04-21T18:36:54.811Z,97388.81
2023-04-21T18:39:23.171Z,97396.59
2023-04-21T18:41:53.649Z,97386.06
2023-04-21T18:44:22.373Z,97393.88
2023-04-21T18:46:50.828Z,97392.31
2023-04-21T18:49:19.344Z,97406.75
2023-04-21T18:51:47.947Z,97404.78
2023-04-21T18:54:16.938Z,97407.97
2023-04-21T18:56:46.029Z,97410.53
2023-04-21T18:59:16.871Z,97407.88
2023-04-21T19:01:45.717Z,97405.16
2023-04-21T19:04:14.889Z,97418.94
2023-04-21T19:06:43.558Z,97419.63
2023-04-21T19:09:12.133Z,97420.88
2023-04-21T19:11:40.946Z,97420.50
2023-04-21T19:14:10.348Z,97421.81
2023-04-21T19:16:41.770Z,97417.94
2023-04-21T19:19:11.157Z,97405.69
2023-04-21T19:21:39.833Z,97421.00
2023-04-21T19:24:09.102Z,97427.72
2023-04-21T19:26:38.137Z,97422.91
2023-04-21T19:29:08.973Z,97428.41
2023-04-21T19:31:37.671Z,97426.41
2023-04-21T19:34:08.731Z,97431.91
2023-04-21T19:36:37.657Z,97437.00
2023-04-21T19:39:07.830Z,97427.22
2023-04-21T19:41:36.606Z,97443.06
2023-04-21T19:44:06.121Z,97440.97
2023-04-21T19:46:34.995Z,97436.88
2023-04-21T19:49:04.365Z,97435.81
2023-04-21T19:51:34.578Z,97445.88
2023-04-21T19:54:10.604Z,97432.84
2023-04-21T19:56:39.927Z,97430.97
2023-04-21T19:59:09.142Z,97446.78
2023-04-21T20:01:38.194Z,97447.53
2023-04-21T20:04:09.295Z,97448.22
2023-04-21T20:06:42.162Z,97446.88
2023-04-21T20:09:11.459Z,97453.63
2023-04-21T20:11:40.569Z,97449.66
2023-04-21T20:14:09.848Z,97455.22
2023-04-21T20:16:38.986Z,97448.22
2023-04-21T20:19:09.085Z,97443.25
2023-04-21T20:21:38.109Z,97444.03
2023-04-21T20:24:08.891Z,97448.28
2023-04-21T20:26:38.003Z,97451.03
2023-04-21T20:29:09.432Z,97453.16
2023-04-21T20:31:38.318Z,97454.28
2023-04-21T20:34:07.735Z,97432.63
2023-04-21T20:36:37.916Z,97449.13
2023-04-21T20:39:09.460Z,97451.94
2023-04-21T20:41:39.470Z,97458.16
2023-04-21T20:44:09.587Z,97450.88
2023-04-21T20:46:38.537Z,97452.38
2023-04-21T20:49:08.415Z,97454.28
2023-04-21T20:51:43.030Z,97447.34
2023-04-21T20:54:13.614Z,97454.97
2023-04-21T20:56:43.669Z,97451.88
2023-04-21T20:59:12.468Z,97462.38
2023-04-21T21:01:42.669Z,97460.66
2023-04-21T21:04:12.098Z,97460.25
2023-04-21T21:06:41.012Z,97462.50
2023-04-21T21:09:10.302Z,97468.97
2023-04-21T21:11:40.519Z,97472.38
2023-04-21T21:14:08.945Z,97472.47
2023-04-21T21:16:37.634Z,97465.34
2023-04-21T21:19:06.286Z,97468.28
2023-04-21T21:21:35.030Z,97480.16
2023-04-21T21:24:04.330Z,97474.00
2023-04-21T21:26:33.069Z,97481.94
2023-04-21T21:29:03.229Z,97486.63
2023-04-21T21:31:32.145Z,97488.59
2023-04-21T21:34:01.974Z,97475.84
2023-04-21T21:36:31.935Z,97479.75
2023-04-21T21:39:00.642Z,97486.34
2023-04-21T21:41:29.031Z,97490.09
2023-04-21T21:43:57.455Z,97471.88
2023-04-21T21:46:27.797Z,97476.75
2023-04-21T21:48:56.744Z,97487.16
2023-04-21T21:51:25.408Z,97489.16
2023-04-21T21:53:54.373Z,97493.78
2023-04-21T21:56:24.249Z,97489.34
2023-04-21T21:58:53.373Z,97496.25
2023-04-21T22:01:22.879Z,97496.84
2023-04-21T22:03:53.921Z,97498.97
2023-04-21T22:06:24.632Z,97490.09
2023-04-21T22:08:52.945Z,97494.16
2023-04-21T22:11:22.025Z,97493.56
2023-04-21T22:13:50.408Z,97493.22
2023-04-21T22:16:18.878Z,97480.59
2023-04-21T22:18:48.668Z,97492.88
2023-04-21T22:21:19.034Z,97491.69
2023-04-21T22:23:47.534Z,97493.47
2023-04-21T22:26:16.243Z,97491.22
2023-04-21T22:28:47.398Z,97495.53
2023-04-21T22:31:16.439Z,97489.78
2023-04-21T22:33:45.207Z,97498.22
2023-04-21T22:36:13.844Z,97491.78
2023-04-21T22:38:46.099Z,97501.28
2023-04-21T22:41:15.711Z,97502.19
2023-04-21T22:43:44.793Z,97504.78
2023-04-21T22:46:14.003Z,97505.59
2023-04-21T22:48:47.596Z,97508.41
2023-04-21T22:51:16.079Z,97502.66
2023-04-21T22:53:47.013Z,97515.72
2023-04-21T22:56:15.973Z,97503.47
2023-04-21T22:58:44.800Z,97503.47
2023-04-21T23:01:14.674Z,97515.72
2023-04-21T23:03:43.185Z,97510.63
2023-04-21T23:06:12.735Z,97513.91
2023-04-21T23:08:41.415Z,97517.56
2023-04-21T23:11:11.534Z,97512.75
2023-04-21T23:13:41.107Z,97516.28
2023-04-21T23:16:09.999Z,97518.84
2023-04-21T23:18:39.484Z,97517.66
2023-04-21T23:21:08.737Z,97515.19
2023-04-21T23:23:37.512Z,97515.31
2023-04-21T23:26:06.212Z,97517.22
2023-04-21T23:28:36.394Z,97515.84
2023-04-21T23:31:05.432Z,97520.41
2023-04-21T23:33:34.317Z,97525.66
2023-04-21T23:36:03.791Z,97532.84
2023-04-21T23:38:33.295Z,97527.91
2023-04-21T23:41:02.540Z,97525.53
2023-04-21T23:43:31.782Z,97523.66
2023-04-21T23:46:03.809Z,97520.28
2023-04-21T23:48:32.567Z,97510.50
2023-04-21T23:51:01.316Z,97518.38
2023-04-21T23:53:31.281Z,97517.63
2023-04-21T23:56:01.308Z,97515.25
2023-04-21T23:58:30.301Z,97515.13
